createdAt,value
2023-02-06T00:01:55.602Z,27.43
2023-02-06T00:04:24.905Z,26.17
2023-02-06T00:06:54.151Z,27.93
2023-02-06T00:09:23.645Z,26.80
2023-02-06T00:11:53.360Z,28.03
2023-02-06T00:14:24.156Z,27.50
2023-02-06T00:16:53.665Z,27.90
2023-02-06T00:19:22.946Z,27.40
2023-02-06T00:21:52.280Z,28.43
2023-02-06T00:24:21.730Z,27.43
2023-02-06T00:26:51.096Z,27.37
2023-02-06T00:29:20.565Z,29.23
2023-02-06T00:31:51.576Z,27.90
2023-02-06T00:34:20.901Z,27.50
2023-02-06T00:36:52.319Z,28.27
2023-02-06T00:39:21.992Z,29.47
2023-02-06T00:41:51.724Z,28.93
2023-02-06T00:44:21.944Z,27.73
2023-02-06T00:46:53.524Z,28.23
2023-02-06T00:49:24.220Z,27.40
2023-02-06T00:51:53.498Z,29.43
2023-02-06T00:54:22.828Z,28.10
2023-02-06T00:56:52.158Z,28.57
2023-02-06T00:59:21.478Z,28.10
2023-02-06T01:01:50.869Z,28.87
2023-02-06T01:04:21.802Z,29.00
2023-02-06T01:06:51.093Z,29.47
2023-02-06T01:09:20.547Z,29.30
2023-02-06T01:11:51.002Z,28.73
2023-02-06T01:14:21.705Z,29.30
2023-02-06T01:16:51.056Z,29.67
2023-02-06T01:19:21.969Z,29.67
2023-02-06T01:21:51.288Z,29.00
2023-02-06T01:24:20.691Z,30.13
2023-02-06T01:26:50.331Z,30.33
2023-02-06T01:29:20.465Z,27.03
2023-02-06T01:31:49.803Z,27.40
2023-02-06T01:34:21.132Z,26.53
2023-02-06T01:36:50.436Z,28.97
2023-02-06T01:39:19.769Z,27.63
2023-02-06T01:41:49.006Z,27.77
2023-02-06T01:44:22.838Z,28.53
2023-02-06T01:46:53.921Z,27.30
2023-02-06T01:49:29.736Z,26.33
2023-02-06T01:52:02.608Z,27.70
2023-02-06T01:54:32.278Z,27.80
2023-02-06T01:57:05.661Z,27.07
2023-02-06T01:59:36.176Z,26.23
2023-02-06T02:02:05.771Z,28.57
2023-02-06T02:04:36.848Z,27.93
2023-02-06T02:07:13.944Z,28.57
2023-02-06T02:09:44.125Z,28.93
2023-02-06T02:12:15.263Z,30.13
2023-02-06T02:14:46.867Z,27.23
2023-02-06T02:17:30.532Z,28.67
2023-02-06T02:20:34.758Z,28.60
2023-02-06T02:23:13.577Z,32.23
2023-02-06T02:26:28.526Z,28.70
2023-02-06T02:29:25.136Z,30.13
2023-02-06T02:32:28.071Z,28.73
2023-02-06T02:35:19.491Z,28.77
2023-02-06T02:38:01.445Z,28.87
2023-02-06T02:40:39.583Z,29.93
2023-02-06T02:43:19.843Z,28.57
2023-02-06T02:45:53.622Z,28.30
2023-02-06T02:48:27.180Z,29.47
2023-02-06T02:50:59.162Z,28.93
2023-02-06T02:53:28.686Z,28.93
2023-02-06T02:56:00.172Z,30.53
2023-02-06T02:58:35.802Z,27.87
2023-02-06T03:01:08.999Z,28.10
2023-02-06T03:03:41.903Z,28.80
2023-02-06T03:06:50.438Z,28.20
2023-02-06T03:09:29.972Z,29.13
2023-02-06T03:12:08.146Z,31.53
2023-02-06T03:14:47.414Z,31.03
2023-02-06T03:17:25.082Z,30.53
2023-02-06T03:19:58.225Z,28.17
2023-02-06T03:22:31.084Z,29.23
2023-02-06T03:25:01.326Z,30.00
2023-02-06T03:27:32.229Z,30.83
2023-02-06T03:30:05.677Z,28.03
2023-02-06T03:32:38.324Z,29.43
2023-02-06T03:35:13.651Z,31.63
2023-02-06T03:37:44.965Z,30.47
2023-02-06T03:40:15.257Z,33.17
2023-02-06T03:42:50.445Z,32.10
2023-02-06T03:45:25.655Z,33.03
2023-02-06T03:47:58.096Z,32.67
2023-02-06T03:50:28.387Z,33.03
2023-02-06T03:53:01.808Z,34.97
2023-02-06T03:55:31.486Z,35.90
2023-02-06T03:58:04.013Z,34.90
2023-02-06T04:00:34.172Z,33.90
2023-02-06T04:03:03.993Z,35.00
2023-02-06T04:05:33.867Z,33.53
2023-02-06T04:08:04.685Z,31.37
2023-02-06T04:10:34.156Z,32.37
2023-02-06T04:13:03.484Z,32.53
2023-02-06T04:15:32.770Z,34.00
2023-02-06T04:18:02.836Z,32.47
2023-02-06T04:20:32.749Z,33.70
2023-02-06T04:23:03.525Z,32.13
2023-02-06T04:25:32.762Z,33.13
2023-02-06T04:28:02.341Z,32.30
2023-02-06T04:30:31.804Z,32.83
2023-02-06T04:33:01.329Z,33.77
2023-02-06T04:35:30.611Z,33.10
2023-02-06T04:37:59.886Z,34.50
2023-02-06T04:40:30.579Z,31.57
2023-02-06T04:43:00.060Z,33.17
2023-02-06T04:45:29.488Z,30.23
2023-02-06T04:47:59.604Z,32.43
2023-02-06T04:50:31.663Z,31.73
2023-02-06T04:53:01.177Z,31.03
2023-02-06T04:55:32.283Z,32.70
2023-02-06T04:58:01.875Z,31.90
2023-02-06T05:00:31.244Z,31.57
2023-02-06T05:03:00.544Z,31.87
2023-02-06T05:05:29.962Z,32.00
2023-02-06T05:07:59.244Z,31.83
2023-02-06T05:10:28.528Z,32.57
2023-02-06T05:12:59.327Z,34.17
2023-02-06T05:15:28.866Z,34.37
2023-02-06T05:17:58.216Z,31.30
2023-02-06T05:20:27.503Z,34.73
2023-02-06T05:22:56.827Z,32.10
2023-02-06T05:25:26.290Z,33.57
2023-02-06T05:27:58.244Z,31.80
2023-02-06T05:30:29.183Z,32.53
2023-02-06T05:32:58.430Z,31.97
2023-02-06T05:35:28.055Z,32.57
2023-02-06T05:37:58.623Z,34.60
2023-02-06T05:40:27.969Z,33.97
2023-02-06T05:42:57.441Z,34.00
2023-02-06T05:45:28.274Z,35.73
2023-02-06T05:47:57.586Z,33.43
2023-02-06T05:50:27.053Z,35.37
2023-02-06T05:52:56.680Z,35.03
2023-02-06T05:55:26.290Z,35.83
2023-02-06T05:57:55.638Z,35.10
2023-02-06T06:00:24.980Z,32.93
2023-02-06T06:02:55.913Z,33.30
2023-02-06T06:05:25.981Z,33.30
2023-02-06T06:07:55.349Z,34.00
2023-02-06T06:10:24.850Z,33.07
2023-02-06T06:12:54.143Z,33.57
2023-02-06T06:15:23.497Z,33.87
2023-02-06T06:17:52.860Z,35.67
2023-02-06T06:20:23.934Z,32.93
2023-02-06T06:22:53.491Z,34.00
2023-02-06T06:25:22.754Z,35.03
2023-02-06T06:27:52.280Z,32.80
2023-02-06T06:30:21.743Z,35.00
2023-02-06T06:32:51.086Z,33.30
2023-02-06T06:35:20.536Z,37.87
2023-02-06T06:37:51.519Z,37.70
2023-02-06T06:40:21.107Z,35.07
2023-02-06T06:42:50.608Z,34.87
2023-02-06T06:45:20.411Z,37.37
2023-02-06T06:47:49.815Z,36.20
2023-02-06T06:50:19.627Z,36.60
2023-02-06T06:52:50.767Z,34.53
2023-02-06T06:55:20.895Z,35.80
2023-02-06T06:57:50.215Z,35.27
2023-02-06T07:00:20.216Z,35.17
2023-02-06T07:02:49.739Z,35.00
2023-02-06T07:05:19.432Z,35.90
2023-02-06T07:07:48.992Z,33.97
2023-02-06T07:10:19.975Z,35.27
2023-02-06T07:12:49.709Z,34.17
2023-02-06T07:15:19.122Z,34.47
2023-02-06T07:17:48.517Z,33.33
2023-02-06T07:20:18.196Z,31.80
2023-02-06T07:22:49.970Z,27.53
2023-02-06T07:25:21.667Z,27.53
2023-02-06T07:27:51.203Z,27.87
2023-02-06T07:30:21.085Z,26.60
2023-02-06T07:32:50.611Z,26.40
2023-02-06T07:35:20.081Z,26.60
2023-02-06T07:37:49.411Z,25.00
2023-02-06T07:40:20.541Z,23.77
2023-02-06T07:42:50.034Z,24.07
2023-02-06T07:45:27.245Z,22.97
2023-02-06T07:47:56.712Z,23.90
2023-02-06T07:50:26.414Z,23.07
2023-02-06T07:52:55.739Z,23.23
2023-02-06T07:55:26.831Z,22.97
2023-02-06T07:57:56.935Z,24.50
2023-02-06T08:00:26.412Z,25.03
2023-02-06T08:02:55.886Z,25.23
2023-02-06T08:05:25.182Z,25.50
2023-02-06T08:07:54.437Z,24.60
2023-02-06T08:10:23.946Z,25.67
2023-02-06T08:12:54.899Z,25.60
2023-02-06T08:15:24.274Z,27.20
2023-02-06T08:17:53.619Z,23.97
2023-02-06T08:20:22.904Z,25.73
2023-02-06T08:22:52.224Z,25.43
2023-02-06T08:25:21.481Z,26.43
2023-02-06T08:27:55.845Z,25.23
2023-02-06T08:30:25.290Z,24.53
2023-02-06T08:32:54.672Z,25.73
2023-02-06T08:35:24.074Z,26.03
2023-02-06T08:37:53.459Z,25.37
2023-02-06T08:40:25.971Z,25.47
2023-02-06T08:43:01.002Z,25.40
2023-02-06T08:45:34.978Z,25.17
2023-02-06T08:48:07.016Z,24.37
2023-02-06T08:50:41.755Z,24.33
2023-02-06T08:53:20.116Z,24.73
2023-02-06T08:55:54.066Z,25.90
2023-02-06T08:58:26.918Z,25.47
2023-02-06T09:00:57.184Z,23.60
2023-02-06T09:03:27.382Z,22.20
2023-02-06T09:06:09.486Z,23.67
2023-02-06T09:08:40.318Z,22.53
2023-02-06T09:11:11.192Z,22.63
2023-02-06T09:13:42.182Z,24.00
2023-02-06T09:16:13.239Z,24.33
2023-02-06T09:18:42.894Z,24.17
2023-02-06T09:21:14.462Z,22.27
2023-02-06T09:23:45.241Z,24.37
2023-02-06T09:26:16.510Z,23.53
2023-02-06T09:28:47.525Z,24.80
2023-02-06T09:31:16.848Z,23.40
2023-02-06T09:33:46.340Z,24.00
2023-02-06T09:36:17.353Z,23.87
2023-02-06T09:38:48.750Z,24.77
2023-02-06T09:41:21.251Z,24.43
2023-02-06T09:43:56.192Z,23.47
2023-02-06T09:46:28.751Z,22.27
2023-02-06T09:49:00.517Z,20.60
2023-02-06T09:51:40.396Z,18.80
2023-02-06T09:54:19.392Z,21.80
2023-02-06T09:56:54.302Z,21.00
2023-02-06T09:59:31.603Z,21.20
2023-02-06T10:02:18.324Z,21.77
2023-02-06T10:04:54.080Z,21.37
2023-02-06T10:07:36.175Z,20.77
2023-02-06T10:10:08.557Z,20.37
2023-02-06T10:12:42.672Z,19.93
2023-02-06T10:15:16.740Z,21.30
2023-02-06T10:17:52.004Z,19.73
2023-02-06T10:20:27.232Z,19.77
2023-02-06T10:23:05.254Z,18.80
2023-02-06T10:25:37.779Z,20.23
2023-02-06T10:28:22.064Z,21.47
2023-02-06T10:31:07.636Z,20.30
2023-02-06T10:33:46.337Z,19.40
2023-02-06T10:36:30.637Z,19.97
2023-02-06T10:39:20.719Z,20.37
2023-02-06T10:41:56.135Z,22.03
2023-02-06T10:44:30.972Z,21.27
2023-02-06T10:47:01.915Z,21.33
2023-02-06T10:49:36.288Z,20.17
2023-02-06T10:52:16.433Z,22.40
2023-02-06T10:54:52.566Z,21.23
2023-02-06T10:57:25.485Z,19.83
2023-02-06T11:00:00.281Z,22.97
2023-02-06T11:02:40.592Z,22.47
2023-02-06T11:05:14.911Z,20.53
2023-02-06T11:07:45.954Z,21.00
2023-02-06T11:10:18.950Z,19.50
2023-02-06T11:12:52.755Z,19.43
2023-02-06T11:15:27.464Z,21.40
2023-02-06T11:17:58.686Z,19.53
2023-02-06T11:20:32.255Z,19.17
2023-02-06T11:23:17.672Z,18.07
2023-02-06T11:25:49.448Z,18.93
2023-02-06T11:28:22.077Z,17.40
2023-02-06T11:31:00.236Z,16.97
2023-02-06T11:33:39.599Z,14.90
2023-02-06T11:36:22.965Z,13.50
2023-02-06T11:39:03.663Z,14.70
2023-02-06T11:41:33.378Z,14.40
2023-02-06T11:44:06.769Z,14.33
2023-02-06T11:46:37.758Z,17.60
2023-02-06T11:49:26.036Z,18.40
2023-02-06T11:51:57.590Z,20.00
2023-02-06T11:54:29.634Z,21.57
2023-02-06T11:57:05.165Z,20.73
2023-02-06T11:59:35.775Z,22.20
2023-02-06T12:02:26.884Z,21.43
2023-02-06T12:05:04.454Z,21.63
2023-02-06T12:07:38.541Z,21.23
2023-02-06T12:10:15.258Z,23.37
2023-02-06T12:12:49.648Z,20.20
2023-02-06T12:15:44.719Z,21.70
2023-02-06T12:18:15.963Z,22.70
2023-02-06T12:20:51.697Z,22.57
2023-02-06T12:23:26.004Z,22.23
2023-02-06T12:25:58.772Z,22.13
2023-02-06T12:28:34.021Z,23.03
2023-02-06T12:31:10.669Z,23.90
2023-02-06T12:33:44.613Z,22.77
2023-02-06T12:36:18.842Z,21.40
2023-02-06T12:38:51.882Z,22.90
2023-02-06T12:41:39.350Z,19.60
2023-02-06T12:44:22.417Z,19.77
2023-02-06T12:46:58.999Z,24.43
2023-02-06T12:49:31.683Z,24.27
2023-02-06T12:52:10.667Z,23.83
2023-02-06T12:54:47.255Z,25.03
2023-02-06T12:57:20.514Z,22.17
2023-02-06T13:00:14.244Z,43.33
2023-02-06T13:03:13.934Z,20.07
2023-02-06T13:05:47.109Z,19.37
2023-02-06T13:08:21.934Z,20.67
2023-02-06T13:11:01.163Z,20.33
2023-02-06T13:13:32.781Z,18.53
2023-02-06T13:16:02.559Z,18.40
2023-02-06T13:18:55.634Z,18.50
2023-02-06T13:21:29.795Z,19.10
2023-02-06T13:24:20.752Z,19.67
2023-02-06T13:27:14.447Z,20.23
2023-02-06T13:29:45.578Z,17.60
2023-02-06T13:32:46.509Z,18.27
2023-02-06T13:35:29.214Z,18.37
2023-02-06T13:38:29.482Z,25.40
2023-02-06T13:41:35.556Z,18.33
2023-02-06T13:44:14.910Z,19.87
2023-02-06T13:47:19.499Z,17.20
2023-02-06T13:50:25.150Z,15.43
2023-02-06T13:53:21.595Z,16.37
2023-02-06T13:56:10.362Z,15.37
2023-02-06T13:58:45.476Z,15.90
2023-02-06T14:01:20.760Z,16.87
2023-02-06T14:03:52.098Z,19.47
2023-02-06T14:06:43.589Z,21.13
2023-02-06T14:09:46.011Z,21.90
2023-02-06T14:12:35.614Z,23.67
2023-02-06T14:15:21.069Z,26.30
2023-02-06T14:18:07.461Z,28.33
2023-02-06T14:20:45.978Z,30.10
2023-02-06T14:23:24.455Z,31.40
2023-02-06T14:26:17.009Z,31.57
2023-02-06T14:28:55.036Z,32.67
2023-02-06T14:31:45.715Z,31.53
2023-02-06T14:34:37.603Z,30.63
2023-02-06T14:37:40.510Z,33.00
2023-02-06T14:40:15.258Z,32.20
2023-02-06T14:42:47.543Z,34.60
2023-02-06T14:45:31.920Z,34.80
2023-02-06T14:48:05.695Z,33.73
2023-02-06T14:50:40.640Z,34.97
2023-02-06T14:53:18.319Z,36.57
2023-02-06T14:55:47.997Z,36.50
2023-02-06T14:58:22.517Z,36.07
2023-02-06T15:00:52.306Z,37.20
2023-02-06T15:03:26.547Z,36.57
2023-02-06T15:06:07.265Z,35.63
2023-02-06T15:08:36.725Z,34.53
2023-02-06T15:11:08.213Z,32.70
2023-02-06T15:13:38.033Z,34.17
2023-02-06T15:16:09.644Z,34.63
2023-02-06T15:18:39.093Z,34.03
2023-02-06T15:21:14.012Z,34.47
2023-02-06T15:24:02.566Z,34.03
2023-02-06T15:26:36.975Z,36.10
2023-02-06T15:29:13.661Z,36.73
2023-02-06T15:31:48.934Z,36.20
2023-02-06T15:34:20.949Z,36.13
2023-02-06T15:36:53.201Z,34.60
2023-02-06T15:39:23.161Z,36.33
2023-02-06T15:42:47.603Z,39.23
2023-02-06T15:45:39.369Z,36.57
2023-02-06T15:48:13.578Z,36.90
2023-02-06T15:50:43.105Z,38.37
2023-02-06T15:53:30.361Z,40.03
2023-02-06T15:56:00.371Z,39.20
2023-02-06T15:58:30.044Z,40.13
2023-02-06T16:01:00.563Z,43.00
2023-02-06T16:03:31.814Z,42.60
2023-02-06T16:06:01.964Z,45.63
2023-02-06T16:08:38.340Z,44.33
2023-02-06T16:11:31.060Z,44.63
2023-02-06T16:14:01.251Z,45.27
2023-02-06T16:16:31.052Z,47.40
2023-02-06T16:19:00.942Z,46.73
2023-02-06T16:21:32.599Z,47.00
2023-02-06T16:24:17.959Z,48.37
2023-02-06T16:26:49.406Z,49.03
2023-02-06T16:29:26.329Z,49.43
2023-02-06T16:32:01.844Z,49.20
2023-02-06T16:34:41.683Z,49.07
2023-02-06T16:37:15.359Z,50.37
2023-02-06T16:39:58.074Z,48.43
2023-02-06T16:42:45.453Z,47.63
2023-02-06T16:45:25.076Z,49.63
2023-02-06T16:47:58.096Z,46.17
2023-02-06T16:50:39.117Z,46.30
2023-02-06T16:53:19.459Z,48.67
2023-02-06T16:56:03.018Z,45.80
2023-02-06T16:58:39.640Z,46.77
2023-02-06T17:01:19.258Z,46.57
2023-02-06T17:03:55.955Z,44.07
2023-02-06T17:06:39.389Z,44.87
2023-02-06T17:09:24.332Z,43.20
2023-02-06T17:12:15.728Z,43.80
2023-02-06T17:14:53.771Z,44.47
2023-02-06T17:17:27.891Z,43.60
2023-02-06T17:20:02.999Z,42.00
2023-02-06T17:22:48.753Z,41.80
2023-02-06T17:25:22.115Z,41.87
2023-02-06T17:28:01.725Z,40.47
2023-02-06T17:30:42.937Z,40.83
2023-02-06T17:33:17.199Z,41.67
2023-02-06T17:35:56.228Z,40.77
2023-02-06T17:38:34.041Z,41.67
2023-02-06T17:41:11.308Z,39.30
2023-02-06T17:43:54.082Z,40.87
2023-02-06T17:46:29.405Z,40.47
2023-02-06T17:49:02.669Z,42.50
2023-02-06T17:51:39.707Z,42.43
2023-02-06T17:54:13.786Z,42.73
2023-02-06T17:56:54.652Z,40.60
2023-02-06T17:59:42.458Z,40.07
2023-02-06T18:02:20.523Z,40.47
2023-02-06T18:05:07.640Z,41.70
2023-02-06T18:07:43.990Z,40.93
2023-02-06T18:10:24.954Z,41.60
2023-02-06T18:12:59.715Z,41.10
2023-02-06T18:15:51.255Z,41.63
2023-02-06T18:18:30.258Z,41.63
2023-02-06T18:21:03.193Z,42.07
2023-02-06T18:23:37.001Z,42.80
2023-02-06T18:26:11.584Z,42.37
2023-02-06T18:28:43.575Z,43.50
2023-02-06T18:31:28.891Z,42.27
2023-02-06T18:34:03.780Z,42.70
2023-02-06T18:36:40.940Z,45.23
2023-02-06T18:39:18.703Z,43.30
2023-02-06T18:42:08.427Z,42.80
2023-02-06T18:45:01.068Z,41.90
2023-02-06T18:47:44.699Z,41.47
2023-02-06T18:50:20.751Z,42.83
2023-02-06T18:52:53.375Z,41.77
2023-02-06T18:55:25.614Z,41.83
2023-02-06T18:57:58.474Z,42.90
2023-02-06T19:00:31.693Z,40.10
2023-02-06T19:03:05.738Z,38.43
2023-02-06T19:05:40.466Z,39.77
2023-02-06T19:08:11.868Z,37.47
2023-02-06T19:10:43.423Z,37.80
2023-02-06T19:13:14.095Z,34.50
2023-02-06T19:15:45.570Z,32.83
2023-02-06T19:18:23.445Z,34.03
2023-02-06T19:20:59.971Z,30.73
2023-02-06T19:23:31.313Z,33.43
2023-02-06T19:26:03.753Z,29.13
2023-02-06T19:28:36.586Z,28.00
2023-02-06T19:31:10.703Z,27.47
2023-02-06T19:33:46.790Z,25.67
2023-02-06T19:36:19.540Z,28.93
2023-02-06T19:38:52.948Z,26.63
2023-02-06T19:41:26.836Z,24.20
2023-02-06T19:44:00.153Z,26.07
2023-02-06T19:46:33.036Z,26.33
2023-02-06T19:49:06.974Z,25.53
2023-02-06T19:51:43.024Z,25.37
2023-02-06T19:54:15.211Z,25.43
2023-02-06T19:56:49.785Z,23.67
2023-02-06T19:59:24.138Z,24.57
2023-02-06T20:01:57.470Z,23.40
2023-02-06T20:04:34.765Z,24.23
2023-02-06T20:07:07.032Z,24.87
2023-02-06T20:09:44.927Z,24.20
2023-02-06T20:12:18.717Z,27.07
2023-02-06T20:14:50.158Z,26.23
2023-02-06T20:17:20.488Z,27.00
2023-02-06T20:19:51.812Z,24.73
2023-02-06T20:22:23.147Z,26.03
2023-02-06T20:24:57.640Z,28.10
2023-02-06T20:27:31.746Z,25.63
2023-02-06T20:30:03.310Z,42.30
2023-02-06T20:32:35.416Z,29.60
2023-02-06T20:35:09.079Z,25.80
2023-02-06T20:37:40.407Z,26.03
2023-02-06T20:40:15.872Z,25.20
2023-02-06T20:42:47.015Z,24.43
2023-02-06T20:45:18.122Z,24.00
2023-02-06T20:47:52.561Z,23.90
2023-02-06T20:50:28.553Z,23.80
2023-02-06T20:53:02.084Z,22.77
2023-02-06T20:55:33.199Z,23.83
2023-02-06T20:58:04.035Z,24.93
2023-02-06T21:00:34.360Z,23.70
2023-02-06T21:03:04.681Z,25.17
2023-02-06T21:05:36.426Z,24.67
2023-02-06T21:08:06.850Z,25.50
2023-02-06T21:10:37.495Z,23.50
2023-02-06T21:13:07.480Z,24.30
2023-02-06T21:15:37.465Z,23.97
2023-02-06T21:18:07.666Z,24.27
2023-02-06T21:20:39.652Z,25.13
2023-02-06T21:23:10.380Z,24.77
2023-02-06T21:25:39.757Z,24.30
2023-02-06T21:28:09.591Z,26.67
2023-02-06T21:30:39.494Z,28.03
2023-02-06T21:33:09.748Z,28.10
2023-02-06T21:35:40.675Z,28.30
2023-02-06T21:38:10.263Z,28.97
2023-02-06T21:40:39.658Z,30.17
2023-02-06T21:43:08.963Z,29.17
2023-02-06T21:45:40.375Z,30.53
2023-02-06T21:48:10.129Z,29.47
2023-02-06T21:50:41.747Z,29.60
2023-02-06T21:53:11.185Z,30.23
2023-02-06T21:55:45.057Z,31.50
2023-02-06T21:58:15.902Z,31.03
2023-02-06T22:00:46.891Z,30.17
2023-02-06T22:03:16.883Z,30.70
2023-02-06T22:05:47.747Z,30.77
2023-02-06T22:08:16.976Z,30.00
2023-02-06T22:10:46.448Z,30.80
2023-02-06T22:13:15.807Z,28.77
2023-02-06T22:15:51.610Z,27.00
2023-02-06T22:18:20.844Z,28.77
2023-02-06T22:20:52.360Z,27.90
2023-02-06T22:23:21.580Z,29.77
2023-02-06T22:25:50.842Z,28.43
2023-02-06T22:28:20.433Z,31.57
2023-02-06T22:30:49.728Z,32.27
2023-02-06T22:33:19.043Z,33.27
2023-02-06T22:35:48.323Z,32.60
2023-02-06T22:38:18.876Z,34.73
2023-02-06T22:40:48.107Z,33.73
2023-02-06T22:43:17.433Z,34.17
2023-02-06T22:45:46.965Z,35.73
2023-02-06T22:48:16.518Z,35.10
2023-02-06T22:50:45.796Z,35.43
2023-02-06T22:53:33.136Z,34.90
2023-02-06T22:56:22.718Z,37.13
2023-02-06T22:58:52.568Z,37.07
2023-02-06T23:01:25.486Z,37.50
2023-02-06T23:03:57.883Z,37.33
2023-02-06T23:06:28.845Z,35.30
2023-02-06T23:08:58.977Z,37.73
2023-02-06T23:11:32.046Z,38.00
2023-02-06T23:14:02.926Z,37.57
2023-02-06T23:16:34.294Z,38.27
2023-02-06T23:19:05.503Z,37.13
2023-02-06T23:21:37.335Z,37.93
2023-02-06T23:24:08.011Z,38.27
2023-02-06T23:26:39.079Z,35.73
2023-02-06T23:29:09.985Z,37.03
2023-02-06T23:31:39.512Z,36.63
2023-02-06T23:34:08.957Z,36.03
2023-02-06T23:36:38.198Z,34.57
2023-02-06T23:39:07.949Z,36.87
2023-02-06T23:41:38.683Z,36.30
2023-02-06T23:44:09.768Z,34.63
2023-02-06T23:46:40.701Z,34.03
2023-02-06T23:49:10.573Z,36.70
2023-02-06T23:51:39.874Z,33.60
2023-02-06T23:54:10.537Z,34.20
2023-02-06T23:56:41.269Z,32.13
2023-02-06T23:59:10.600Z,31.43
